Maugansville, Maryland
Current Conditions -  °F | °C
As of 10:23 PM on Monday 22 Dec 2014 (Local Time) from KHGR Reporting Station
Haze Haze  
Wind Chill: 26°   Ceiling: 300
Heat Index: 33°   Visibility: 1.5mi
Dew Point: 31°   Wind: 8mph
Humidity: 92%   Direction: 340°NNW
Pressure: 30.11"   Gusts: NA
Location:  39.69°N, 77.74°W
Report Text: KHGR 230323Z AUTO 34007KT 1 1/2SM BR OVC003 01/M01 A3011 RMK AO2 FZRAB0258E07 P0000 I1000 T00061006
Loading
Personal Weather Stations






























Interactive Weather Map New forecast layout! Learn more

10-Day Weather Forecast

Advertisements
Track Severe Weather on mobile